createdAt,value
2018-09-25T00:07:15.143Z,0.00
2018-09-25T00:17:15.192Z,0.00
2018-09-25T00:27:15.142Z,0.00
2018-09-25T00:37:15.212Z,0.00
2018-09-25T00:47:15.178Z,0.00
2018-09-25T00:57:15.903Z,0.01
2018-09-25T01:07:15.120Z,0.00
2018-09-25T01:17:15.190Z,0.01
2018-09-25T01:27:15.157Z,0.00
2018-09-25T01:37:15.963Z,0.00
2018-09-25T01:47:15.130Z,0.00
2018-09-25T01:57:15.092Z,0.00
2018-09-25T02:07:16.881Z,0.00
2018-09-25T02:17:15.107Z,0.00
2018-09-25T02:27:15.243Z,0.00
2018-09-25T02:37:15.152Z,0.00
2018-09-25T02:47:15.117Z,0.00
2018-09-25T02:57:15.173Z,0.00
2018-09-25T03:07:15.156Z,0.00
2018-09-25T03:17:15.170Z,0.00
2018-09-25T03:27:15.118Z,0.00
2018-09-25T03:37:15.125Z,0.00
2018-09-25T03:47:15.064Z,0.00
2018-09-25T03:57:15.150Z,0.00
2018-09-25T04:07:15.152Z,0.00
2018-09-25T04:17:15.094Z,0.00
2018-09-25T04:27:15.133Z,0.00
2018-09-25T04:37:15.412Z,0.00
2018-09-25T04:47:15.076Z,0.00
2018-09-25T04:57:15.169Z,0.00
2018-09-25T05:07:15.331Z,0.00
2018-09-25T05:17:15.091Z,0.00
2018-09-25T05:27:15.125Z,0.00
2018-09-25T05:37:15.512Z,0.00
2018-09-25T05:47:14.953Z,0.00
2018-09-25T05:57:15.097Z,0.00
2018-09-25T06:07:15.209Z,0.01
2018-09-25T06:17:15.340Z,0.00
2018-09-25T06:27:15.475Z,0.00
2018-09-25T06:37:15.043Z,0.00
2018-09-25T06:47:15.198Z,0.00
2018-09-25T06:57:15.035Z,0.02
2018-09-25T07:07:15.186Z,0.03
2018-09-25T07:17:15.065Z,0.02
2018-09-25T07:27:15.184Z,0.07
2018-09-25T07:37:15.276Z,0.33
2018-09-25T07:47:15.066Z,0.01
2018-09-25T07:57:16.146Z,0.06
2018-09-25T08:07:15.197Z,0.07
2018-09-25T08:17:15.288Z,0.12
2018-09-25T08:27:16.247Z,0.11
2018-09-25T08:37:15.416Z,0.27
2018-09-25T08:47:15.105Z,0.18
2018-09-25T08:57:15.522Z,0.32
2018-09-25T09:07:15.144Z,0.57
2018-09-25T09:17:15.402Z,0.48
2018-09-25T09:27:15.701Z,0.72
2018-09-25T09:37:18.301Z,0.71
2018-09-25T09:47:15.131Z,0.69
2018-09-25T09:57:15.097Z,0.80
2018-09-25T10:07:16.925Z,0.42
2018-09-25T10:17:15.185Z,0.48
2018-09-25T10:27:18.905Z,0.23
2018-09-25T10:37:15.113Z,0.16
2018-09-25T10:47:18.110Z,0.33
2018-09-25T10:57:15.151Z,0.31
2018-09-25T11:07:15.403Z,0.74
2018-09-25T11:17:15.098Z,0.83
2018-09-25T11:27:15.150Z,1.45
2018-09-25T11:37:15.858Z,1.09
2018-09-25T11:47:16.657Z,0.73
2018-09-25T11:57:15.176Z,0.30
2018-09-25T12:07:15.056Z,1.25
2018-09-25T12:17:15.475Z,0.97
2018-09-25T12:27:16.085Z,1.06
2018-09-25T12:37:15.221Z,0.79
2018-09-25T12:47:15.114Z,0.41
2018-09-25T12:57:15.422Z,0.88
2018-09-25T13:07:15.278Z,0.79
2018-09-25T13:17:15.233Z,1.18
2018-09-25T13:27:15.238Z,0.76
2018-09-25T13:37:15.164Z,0.47
2018-09-25T13:47:15.315Z,1.29
2018-09-25T13:57:15.071Z,1.43
2018-09-25T14:07:15.074Z,1.26
2018-09-25T14:17:15.258Z,0.77
2018-09-25T14:27:16.288Z,1.29
2018-09-25T14:37:15.266Z,0.68
2018-09-25T14:47:15.268Z,1.51
2018-09-25T14:57:15.256Z,1.27
2018-09-25T15:07:15.355Z,0.54
2018-09-25T15:17:15.174Z,0.82
2018-09-25T15:27:15.124Z,0.91
2018-09-25T15:37:15.256Z,0.77
2018-09-25T15:47:15.195Z,0.45
2018-09-25T15:57:15.944Z,1.30
2018-09-25T16:07:15.204Z,0.77
2018-09-25T16:17:15.233Z,1.58
2018-09-25T16:27:15.393Z,1.42
2018-09-25T16:37:15.513Z,0.96
2018-09-25T16:47:15.338Z,1.04
2018-09-25T16:57:15.239Z,0.58
2018-09-25T17:07:15.174Z,0.62
2018-09-25T17:17:15.664Z,0.34
2018-09-25T17:27:15.187Z,0.49
2018-09-25T17:37:15.241Z,0.49
2018-09-25T17:47:15.192Z,0.47
2018-09-25T17:57:15.189Z,0.97
2018-09-25T18:07:15.392Z,0.83
2018-09-25T18:17:15.191Z,0.94
2018-09-25T18:27:17.175Z,0.78
2018-09-25T18:37:15.233Z,0.19
2018-09-25T18:47:15.263Z,0.21
2018-09-25T18:57:15.265Z,0.07
2018-09-25T19:07:15.296Z,0.01
2018-09-25T19:17:15.208Z,0.00
2018-09-25T19:27:15.237Z,0.02
2018-09-25T19:37:15.203Z,0.45
2018-09-25T19:47:15.229Z,0.98
2018-09-25T19:57:15.195Z,0.92
2018-09-25T20:07:15.208Z,0.70
2018-09-25T20:17:15.193Z,0.50
2018-09-25T20:27:15.222Z,0.58
2018-09-25T20:37:15.205Z,0.19
2018-09-25T20:47:15.183Z,0.07
2018-09-25T20:57:15.230Z,0.11
2018-09-25T21:07:15.247Z,0.46
2018-09-25T21:17:15.251Z,0.35
2018-09-25T21:27:15.236Z,0.37
2018-09-25T21:37:15.158Z,0.80
2018-09-25T21:47:15.249Z,0.79
2018-09-25T21:57:15.410Z,0.38
2018-09-25T22:07:15.243Z,0.10
2018-09-25T22:17:15.140Z,0.08
2018-09-25T22:27:15.177Z,0.00
2018-09-25T22:37:15.181Z,0.02
2018-09-25T22:47:15.688Z,0.03
2018-09-25T22:57:15.151Z,0.00
2018-09-25T23:07:15.155Z,0.00
2018-09-25T23:17:15.211Z,0.00
2018-09-25T23:27:15.214Z,0.13
2018-09-25T23:37:15.314Z,0.04
2018-09-25T23:47:16.239Z,0.04
2018-09-25T23:57:17.507Z,0.01
